sensor_id;sensor_type;location;lat;lon;timestamp;P1;durP1;ratioP1;P2;durP2;ratioP2
77854;SDS011;67046;50.088;14.336;2023-07-13T00:00:20;6.90;;;3.90;;
77854;SDS011;67046;50.088;14.336;2023-07-13T00:01:13;4.30;;;3.80;;
77854;SDS011;67046;50.088;14.336;2023-07-13T00:01:46;5.20;;;3.90;;
77854;SDS011;67046;50.088;14.336;2023-07-13T00:02:20;5.70;;;4.10;;
77854;SDS011;67046;50.088;14.336;2023-07-13T00:02:52;5.50;;;4.40;;
77854;SDS011;67046;50.088;14.336;2023-07-13T00:03:26;5.70;;;4.10;;
77854;SDS011;67046;50.088;14.336;2023-07-13T00:03:57;6.40;;;4.20;;
77854;SDS011;67046;50.088;14.336;2023-07-13T00:04:28;5.40;;;4.20;;
77854;SDS011;67046;50.088;14.336;2023-07-13T00:05:00;5.80;;;4.20;;
77854;SDS011;67046;50.088;14.336;2023-07-13T00:05:31;5.10;;;4.50;;
77854;SDS011;67046;50.088;14.336;2023-07-13T00:06:03;7.40;;;4.20;;
77854;SDS011;67046;50.088;14.336;2023-07-13T00:06:34;6.70;;;4.70;;
77854;SDS011;67046;50.088;14.336;2023-07-13T00:07:06;5.00;;;4.40;;
77854;SDS011;67046;50.088;14.336;2023-07-13T00:08:09;7.30;;;4.60;;
77854;SDS011;67046;50.088;14.336;2023-07-13T00:08:42;5.90;;;4.60;;
77854;SDS011;67046;50.088;14.336;2023-07-13T00:09:14;6.10;;;4.30;;
77854;SDS011;67046;50.088;14.336;2023-07-13T00:09:47;5.00;;;3.70;;
77854;SDS011;67046;50.088;14.336;2023-07-13T00:10:19;5.60;;;4.30;;
77854;SDS011;67046;50.088;14.336;2023-07-13T00:10:51;5.20;;;4.40;;
77854;SDS011;67046;50.088;14.336;2023-07-13T00:11:25;6.80;;;4.70;;
77854;SDS011;67046;50.088;14.336;2023-07-13T00:11:57;7.30;;;4.70;;
77854;SDS011;67046;50.088;14.336;2023-07-13T00:12:29;5.10;;;4.40;;
77854;SDS011;67046;50.088;14.336;2023-07-13T00:13:03;6.00;;;4.30;;
77854;SDS011;67046;50.088;14.336;2023-07-13T00:13:34;5.40;;;4.40;;
77854;SDS011;67046;50.088;14.336;2023-07-13T00:14:09;5.70;;;4.40;;
77854;SDS011;67046;50.088;14.336;2023-07-13T00:14:40;5.80;;;4.40;;
77854;SDS011;67046;50.088;14.336;2023-07-13T00:15:16;6.60;;;4.40;;
77854;SDS011;67046;50.088;14.336;2023-07-13T00:15:53;6.00;;;4.20;;
77854;SDS011;67046;50.088;14.336;2023-07-13T00:16:25;8.80;;;4.90;;
77854;SDS011;67046;50.088;14.336;2023-07-13T00:16:56;7.60;;;4.70;;
77854;SDS011;67046;50.088;14.336;2023-07-13T00:17:28;7.50;;;4.40;;
77854;SDS011;67046;50.088;14.336;2023-07-13T00:17:59;6.10;;;5.20;;
77854;SDS011;67046;50.088;14.336;2023-07-13T00:18:32;6.40;;;4.30;;
77854;SDS011;67046;50.088;14.336;2023-07-13T00:19:03;8.70;;;4.30;;
77854;SDS011;67046;50.088;14.336;2023-07-13T00:20:07;5.70;;;4.60;;
77854;SDS011;67046;50.088;14.336;2023-07-13T00:20:39;5.10;;;4.40;;
77854;SDS011;67046;50.088;14.336;2023-07-13T00:21:12;5.20;;;4.50;;
77854;SDS011;67046;50.088;14.336;2023-07-13T00:21:43;5.90;;;4.60;;
77854;SDS011;67046;50.088;14.336;2023-07-13T00:22:14;6.00;;;4.00;;
77854;SDS011;67046;50.088;14.336;2023-07-13T00:22:48;6.20;;;4.80;;
77854;SDS011;67046;50.088;14.336;2023-07-13T00:23:20;6.00;;;4.40;;
77854;SDS011;67046;50.088;14.336;2023-07-13T00:23:51;7.00;;;5.00;;
77854;SDS011;67046;50.088;14.336;2023-07-13T00:24:23;7.00;;;4.80;;
77854;SDS011;67046;50.088;14.336;2023-07-13T00:24:55;7.30;;;4.90;;
77854;SDS011;67046;50.088;14.336;2023-07-13T00:25:29;6.50;;;5.40;;
77854;SDS011;67046;50.088;14.336;2023-07-13T00:26:01;5.30;;;4.70;;
77854;SDS011;67046;50.088;14.336;2023-07-13T00:26:33;6.50;;;4.30;;
77854;SDS011;67046;50.088;14.336;2023-07-13T00:27:05;5.70;;;4.60;;
77854;SDS011;67046;50.088;14.336;2023-07-13T00:27:36;5.90;;;4.40;;
77854;SDS011;67046;50.088;14.336;2023-07-13T00:28:07;6.00;;;4.50;;
77854;SDS011;67046;50.088;14.336;2023-07-13T00:28:39;6.30;;;4.60;;
77854;SDS011;67046;50.088;14.336;2023-07-13T00:29:10;5.70;;;4.70;;
77854;SDS011;67046;50.088;14.336;2023-07-13T00:29:42;5.40;;;4.90;;
77854;SDS011;67046;50.088;14.336;2023-07-13T00:30:14;6.60;;;5.00;;
77854;SDS011;67046;50.088;14.336;2023-07-13T00:30:46;6.90;;;5.00;;
77854;SDS011;67046;50.088;14.336;2023-07-13T00:31:17;5.60;;;4.30;;
77854;SDS011;67046;50.088;14.336;2023-07-13T00:31:49;8.50;;;5.00;;
77854;SDS011;67046;50.088;14.336;2023-07-13T00:32:20;6.40;;;4.70;;
77854;SDS011;67046;50.088;14.336;2023-07-13T00:32:51;5.30;;;4.60;;
77854;SDS011;67046;50.088;14.336;2023-07-13T00:33:23;6.80;;;4.90;;
77854;SDS011;67046;50.088;14.336;2023-07-13T00:33:54;5.60;;;4.60;;
77854;SDS011;67046;50.088;14.336;2023-07-13T00:34:25;6.30;;;4.70;;
77854;SDS011;67046;50.088;14.336;2023-07-13T00:34:57;5.80;;;4.70;;
77854;SDS011;67046;50.088;14.336;2023-07-13T00:35:31;9.20;;;4.40;;
77854;SDS011;67046;50.088;14.336;2023-07-13T00:36:03;6.20;;;4.40;;
77854;SDS011;67046;50.088;14.336;2023-07-13T00:36:34;5.50;;;4.30;;
77854;SDS011;67046;50.088;14.336;2023-07-13T00:37:06;5.20;;;4.70;;
77854;SDS011;67046;50.088;14.336;2023-07-13T00:37:38;8.70;;;5.00;;
77854;SDS011;67046;50.088;14.336;2023-07-13T00:38:09;8.40;;;4.90;;
77854;SDS011;67046;50.088;14.336;2023-07-13T00:38:41;9.00;;;5.10;;
77854;SDS011;67046;50.088;14.336;2023-07-13T00:39:12;9.80;;;5.00;;
77854;SDS011;67046;50.088;14.336;2023-07-13T00:39:43;8.10;;;4.70;;
77854;SDS011;67046;50.088;14.336;2023-07-13T00:40:15;5.80;;;4.90;;
77854;SDS011;67046;50.088;14.336;2023-07-13T00:40:47;7.60;;;4.90;;
77854;SDS011;67046;50.088;14.336;2023-07-13T00:41:18;6.90;;;5.00;;
77854;SDS011;67046;50.088;14.336;2023-07-13T00:41:50;6.80;;;5.20;;
77854;SDS011;67046;50.088;14.336;2023-07-13T00:42:21;7.10;;;4.60;;
77854;SDS011;67046;50.088;14.336;2023-07-13T00:42:53;6.30;;;5.00;;
77854;SDS011;67046;50.088;14.336;2023-07-13T00:43:26;6.50;;;4.60;;
77854;SDS011;67046;50.088;14.336;2023-07-13T00:43:58;6.10;;;4.60;;
77854;SDS011;67046;50.088;14.336;2023-07-13T00:44:30;7.50;;;4.80;;
77854;SDS011;67046;50.088;14.336;2023-07-13T00:45:06;6.40;;;5.00;;
77854;SDS011;67046;50.088;14.336;2023-07-13T00:46:16;6.50;;;5.00;;
77854;SDS011;67046;50.088;14.336;2023-07-13T00:46:47;7.90;;;5.10;;
77854;SDS011;67046;50.088;14.336;2023-07-13T00:47:19;6.10;;;4.90;;
77854;SDS011;67046;50.088;14.336;2023-07-13T00:47:50;7.90;;;4.80;;
77854;SDS011;67046;50.088;14.336;2023-07-13T00:48:23;5.70;;;5.10;;
77854;SDS011;67046;50.088;14.336;2023-07-13T00:49:02;6.50;;;4.80;;
77854;SDS011;67046;50.088;14.336;2023-07-13T00:49:37;6.20;;;5.00;;
77854;SDS011;67046;50.088;14.336;2023-07-13T00:50:10;7.00;;;5.10;;
77854;SDS011;67046;50.088;14.336;2023-07-13T00:50:44;8.00;;;5.00;;
77854;SDS011;67046;50.088;14.336;2023-07-13T00:51:22;6.40;;;5.20;;
77854;SDS011;67046;50.088;14.336;2023-07-13T00:52:02;8.00;;;5.20;;
77854;SDS011;67046;50.088;14.336;2023-07-13T00:52:37;8.00;;;5.00;;
77854;SDS011;67046;50.088;14.336;2023-07-13T00:53:12;6.10;;;5.10;;
77854;SDS011;67046;50.088;14.336;2023-07-13T00:53:44;6.70;;;4.90;;
77854;SDS011;67046;50.088;14.336;2023-07-13T00:54:18;6.10;;;5.00;;
77854;SDS011;67046;50.088;14.336;2023-07-13T00:54:54;7.20;;;5.10;;
77854;SDS011;67046;50.088;14.336;2023-07-13T00:55:57;8.70;;;5.00;;
77854;SDS011;67046;50.088;14.336;2023-07-13T00:56:29;6.40;;;5.00;;
77854;SDS011;67046;50.088;14.336;2023-07-13T00:57:01;6.40;;;4.80;;
77854;SDS011;67046;50.088;14.336;2023-07-13T00:57:36;7.40;;;5.40;;
77854;SDS011;67046;50.088;14.336;2023-07-13T00:58:08;7.30;;;5.00;;
77854;SDS011;67046;50.088;14.336;2023-07-13T00:58:39;8.60;;;5.40;;
77854;SDS011;67046;50.088;14.336;2023-07-13T00:59:11;7.40;;;4.90;;
77854;SDS011;67046;50.088;14.336;2023-07-13T00:59:46;7.00;;;5.30;;
77854;SDS011;67046;50.088;14.336;2023-07-13T01:00:19;5.90;;;5.10;;
77854;SDS011;67046;50.088;14.336;2023-07-13T01:00:53;7.40;;;5.40;;
77854;SDS011;67046;50.088;14.336;2023-07-13T01:01:24;8.20;;;5.40;;
77854;SDS011;67046;50.088;14.336;2023-07-13T01:01:55;7.70;;;5.50;;
77854;SDS011;67046;50.088;14.336;2023-07-13T01:02:27;6.60;;;5.40;;
77854;SDS011;67046;50.088;14.336;2023-07-13T01:03:32;6.60;;;5.30;;
77854;SDS011;67046;50.088;14.336;2023-07-13T01:04:05;7.20;;;5.30;;
77854;SDS011;67046;50.088;14.336;2023-07-13T01:04:38;6.60;;;5.70;;
77854;SDS011;67046;50.088;14.336;2023-07-13T01:05:10;8.80;;;5.30;;
77854;SDS011;67046;50.088;14.336;2023-07-13T01:05:44;7.80;;;5.60;;
77854;SDS011;67046;50.088;14.336;2023-07-13T01:06:19;7.10;;;5.30;;
77854;SDS011;67046;50.088;14.336;2023-07-13T01:06:50;6.40;;;5.20;;
77854;SDS011;67046;50.088;14.336;2023-07-13T01:07:22;6.60;;;5.40;;
77854;SDS011;67046;50.088;14.336;2023-07-13T01:07:54;8.20;;;5.20;;
77854;SDS011;67046;50.088;14.336;2023-07-13T01:08:26;7.30;;;5.10;;
77854;SDS011;67046;50.088;14.336;2023-07-13T01:08:57;7.50;;;5.70;;
77854;SDS011;67046;50.088;14.336;2023-07-13T01:09:29;7.30;;;5.50;;
77854;SDS011;67046;50.088;14.336;2023-07-13T01:10:00;7.40;;;5.60;;
77854;SDS011;67046;50.088;14.336;2023-07-13T01:10:32;7.60;;;5.90;;
77854;SDS011;67046;50.088;14.336;2023-07-13T01:11:09;7.00;;;6.00;;
77854;SDS011;67046;50.088;14.336;2023-07-13T01:11:41;8.40;;;5.10;;
77854;SDS011;67046;50.088;14.336;2023-07-13T01:12:13;9.60;;;5.90;;
77854;SDS011;67046;50.088;14.336;2023-07-13T01:12:44;6.80;;;5.70;;
77854;SDS011;67046;50.088;14.336;2023-07-13T01:13:15;8.50;;;5.40;;
77854;SDS011;67046;50.088;14.336;2023-07-13T01:13:47;7.10;;;4.80;;
77854;SDS011;67046;50.088;14.336;2023-07-13T01:14:18;9.50;;;5.80;;
77854;SDS011;67046;50.088;14.336;2023-07-13T01:14:56;7.80;;;5.60;;
77854;SDS011;67046;50.088;14.336;2023-07-13T01:16:15;8.70;;;5.60;;
77854;SDS011;67046;50.088;14.336;2023-07-13T01:16:53;6.90;;;5.40;;
77854;SDS011;67046;50.088;14.336;2023-07-13T01:17:25;9.60;;;6.00;;
77854;SDS011;67046;50.088;14.336;2023-07-13T01:17:57;8.10;;;5.60;;
77854;SDS011;67046;50.088;14.336;2023-07-13T01:18:29;6.20;;;5.40;;
77854;SDS011;67046;50.088;14.336;2023-07-13T01:19:01;7.60;;;5.90;;
77854;SDS011;67046;50.088;14.336;2023-07-13T01:19:46;7.00;;;5.60;;
77854;SDS011;67046;50.088;14.336;2023-07-13T01:20:18;7.30;;;5.40;;
77854;SDS011;67046;50.088;14.336;2023-07-13T01:21:00;7.50;;;5.80;;
77854;SDS011;67046;50.088;14.336;2023-07-13T01:21:33;8.10;;;5.80;;
77854;SDS011;67046;50.088;14.336;2023-07-13T01:22:06;7.20;;;5.10;;
77854;SDS011;67046;50.088;14.336;2023-07-13T01:22:40;7.20;;;5.60;;
77854;SDS011;67046;50.088;14.336;2023-07-13T01:23:11;7.00;;;5.80;;
77854;SDS011;67046;50.088;14.336;2023-07-13T01:23:43;7.50;;;5.60;;
77854;SDS011;67046;50.088;14.336;2023-07-13T01:24:15;8.90;;;5.60;;
77854;SDS011;67046;50.088;14.336;2023-07-13T01:24:47;9.10;;;6.40;;
77854;SDS011;67046;50.088;14.336;2023-07-13T01:25:50;7.50;;;5.30;;
77854;SDS011;67046;50.088;14.336;2023-07-13T01:26:22;7.10;;;5.70;;
77854;SDS011;67046;50.088;14.336;2023-07-13T01:26:53;10.00;;;6.20;;
77854;SDS011;67046;50.088;14.336;2023-07-13T01:27:25;9.20;;;6.00;;
77854;SDS011;67046;50.088;14.336;2023-07-13T01:27:57;7.70;;;5.60;;
77854;SDS011;67046;50.088;14.336;2023-07-13T01:28:28;7.30;;;5.80;;
77854;SDS011;67046;50.088;14.336;2023-07-13T01:29:00;6.40;;;5.60;;
77854;SDS011;67046;50.088;14.336;2023-07-13T01:29:32;8.70;;;5.50;;
77854;SDS011;67046;50.088;14.336;2023-07-13T01:30:12;7.90;;;6.20;;
77854;SDS011;67046;50.088;14.336;2023-07-13T01:30:44;9.40;;;5.50;;
77854;SDS011;67046;50.088;14.336;2023-07-13T01:31:16;6.50;;;5.10;;
77854;SDS011;67046;50.088;14.336;2023-07-13T01:31:48;8.20;;;5.80;;
77854;SDS011;67046;50.088;14.336;2023-07-13T01:32:20;7.20;;;5.80;;
77854;SDS011;67046;50.088;14.336;2023-07-13T01:32:54;7.80;;;5.70;;
77854;SDS011;67046;50.088;14.336;2023-07-13T01:33:26;8.80;;;6.10;;
77854;SDS011;67046;50.088;14.336;2023-07-13T01:33:57;7.30;;;5.90;;
77854;SDS011;67046;50.088;14.336;2023-07-13T01:34:29;6.80;;;5.80;;
77854;SDS011;67046;50.088;14.336;2023-07-13T01:35:00;6.00;;;5.40;;
77854;SDS011;67046;50.088;14.336;2023-07-13T01:35:31;6.60;;;5.50;;
77854;SDS011;67046;50.088;14.336;2023-07-13T01:36:02;7.20;;;5.70;;
77854;SDS011;67046;50.088;14.336;2023-07-13T01:36:34;8.60;;;6.10;;
77854;SDS011;67046;50.088;14.336;2023-07-13T01:37:06;8.30;;;5.90;;
77854;SDS011;67046;50.088;14.336;2023-07-13T01:37:38;8.60;;;6.00;;
77854;SDS011;67046;50.088;14.336;2023-07-13T01:38:09;8.30;;;6.50;;
77854;SDS011;67046;50.088;14.336;2023-07-13T01:38:41;7.10;;;5.60;;
77854;SDS011;67046;50.088;14.336;2023-07-13T01:39:12;7.20;;;5.90;;
77854;SDS011;67046;50.088;14.336;2023-07-13T01:39:45;8.10;;;5.70;;
77854;SDS011;67046;50.088;14.336;2023-07-13T01:40:17;6.90;;;5.90;;
77854;SDS011;67046;50.088;14.336;2023-07-13T01:40:49;9.20;;;5.90;;
77854;SDS011;67046;50.088;14.336;2023-07-13T01:41:24;7.10;;;5.90;;
77854;SDS011;67046;50.088;14.336;2023-07-13T01:41:55;9.90;;;6.20;;
77854;SDS011;67046;50.088;14.336;2023-07-13T01:42:27;8.00;;;6.20;;
77854;SDS011;67046;50.088;14.336;2023-07-13T01:42:59;7.80;;;6.00;;
77854;SDS011;67046;50.088;14.336;2023-07-13T01:43:30;8.90;;;5.80;;
77854;SDS011;67046;50.088;14.336;2023-07-13T01:44:02;7.20;;;6.40;;
77854;SDS011;67046;50.088;14.336;2023-07-13T01:44:34;7.70;;;6.00;;
77854;SDS011;67046;50.088;14.336;2023-07-13T01:45:05;7.20;;;6.00;;
77854;SDS011;67046;50.088;14.336;2023-07-13T01:45:37;8.60;;;5.90;;
77854;SDS011;67046;50.088;14.336;2023-07-13T01:46:08;8.60;;;6.00;;
77854;SDS011;67046;50.088;14.336;2023-07-13T01:46:40;7.20;;;5.70;;
77854;SDS011;67046;50.088;14.336;2023-07-13T01:47:11;6.60;;;5.90;;
77854;SDS011;67046;50.088;14.336;2023-07-13T01:47:42;7.00;;;6.10;;
77854;SDS011;67046;50.088;14.336;2023-07-13T01:48:14;7.60;;;6.00;;
77854;SDS011;67046;50.088;14.336;2023-07-13T01:48:45;6.70;;;5.80;;
77854;SDS011;67046;50.088;14.336;2023-07-13T01:49:16;8.00;;;6.40;;
77854;SDS011;67046;50.088;14.336;2023-07-13T01:49:47;7.90;;;5.80;;
77854;SDS011;67046;50.088;14.336;2023-07-13T01:50:19;9.70;;;5.90;;
77854;SDS011;67046;50.088;14.336;2023-07-13T01:50:50;6.80;;;5.90;;
77854;SDS011;67046;50.088;14.336;2023-07-13T01:51:21;6.90;;;5.70;;
77854;SDS011;67046;50.088;14.336;2023-07-13T01:51:53;8.30;;;5.90;;
77854;SDS011;67046;50.088;14.336;2023-07-13T01:52:24;8.20;;;5.90;;
77854;SDS011;67046;50.088;14.336;2023-07-13T01:52:55;10.60;;;6.30;;
77854;SDS011;67046;50.088;14.336;2023-07-13T01:53:27;8.20;;;6.60;;
77854;SDS011;67046;50.088;14.336;2023-07-13T01:53:58;9.10;;;6.60;;
77854;SDS011;67046;50.088;14.336;2023-07-13T01:54:29;7.90;;;5.90;;
77854;SDS011;67046;50.088;14.336;2023-07-13T01:55:00;9.20;;;5.80;;
77854;SDS011;67046;50.088;14.336;2023-07-13T01:55:32;7.30;;;6.40;;
77854;SDS011;67046;50.088;14.336;2023-07-13T01:56:04;7.50;;;6.20;;
77854;SDS011;67046;50.088;14.336;2023-07-13T01:56:35;7.50;;;6.10;;
77854;SDS011;67046;50.088;14.336;2023-07-13T01:57:06;8.30;;;6.10;;
77854;SDS011;67046;50.088;14.336;2023-07-13T01:57:38;9.10;;;5.90;;
77854;SDS011;67046;50.088;14.336;2023-07-13T01:58:09;8.70;;;6.10;;
77854;SDS011;67046;50.088;14.336;2023-07-13T01:58:40;8.60;;;6.10;;
77854;SDS011;67046;50.088;14.336;2023-07-13T01:59:11;8.10;;;6.60;;
77854;SDS011;67046;50.088;14.336;2023-07-13T01:59:43;9.90;;;6.30;;
77854;SDS011;67046;50.088;14.336;2023-07-13T02:00:14;7.00;;;6.00;;
77854;SDS011;67046;50.088;14.336;2023-07-13T02:00:47;10.00;;;6.40;;
77854;SDS011;67046;50.088;14.336;2023-07-13T02:01:20;6.80;;;6.10;;
77854;SDS011;67046;50.088;14.336;2023-07-13T02:01:52;7.30;;;6.50;;
77854;SDS011;67046;50.088;14.336;2023-07-13T02:02:23;7.20;;;6.40;;
77854;SDS011;67046;50.088;14.336;2023-07-13T02:02:54;6.60;;;5.60;;
77854;SDS011;67046;50.088;14.336;2023-07-13T02:03:25;10.20;;;6.10;;
77854;SDS011;67046;50.088;14.336;2023-07-13T02:03:57;8.50;;;5.80;;
77854;SDS011;67046;50.088;14.336;2023-07-13T02:04:28;8.30;;;6.60;;
77854;SDS011;67046;50.088;14.336;2023-07-13T02:04:59;6.70;;;6.00;;
77854;SDS011;67046;50.088;14.336;2023-07-13T02:05:30;9.20;;;6.70;;
77854;SDS011;67046;50.088;14.336;2023-07-13T02:06:01;7.10;;;5.90;;
77854;SDS011;67046;50.088;14.336;2023-07-13T02:06:33;7.10;;;6.40;;
77854;SDS011;67046;50.088;14.336;2023-07-13T02:07:05;7.20;;;5.90;;
77854;SDS011;67046;50.088;14.336;2023-07-13T02:07:36;8.10;;;6.30;;
77854;SDS011;67046;50.088;14.336;2023-07-13T02:08:07;8.30;;;6.00;;
77854;SDS011;67046;50.088;14.336;2023-07-13T02:08:40;9.10;;;6.20;;
77854;SDS011;67046;50.088;14.336;2023-07-13T02:09:11;9.40;;;6.40;;
77854;SDS011;67046;50.088;14.336;2023-07-13T02:09:43;9.30;;;6.40;;
77854;SDS011;67046;50.088;14.336;2023-07-13T02:10:14;7.10;;;6.30;;
77854;SDS011;67046;50.088;14.336;2023-07-13T02:10:46;8.30;;;6.30;;
77854;SDS011;67046;50.088;14.336;2023-07-13T02:11:17;9.40;;;6.40;;
77854;SDS011;67046;50.088;14.336;2023-07-13T02:11:48;7.60;;;6.90;;
77854;SDS011;67046;50.088;14.336;2023-07-13T02:12:19;7.70;;;6.30;;
77854;SDS011;67046;50.088;14.336;2023-07-13T02:12:51;8.30;;;5.90;;
77854;SDS011;67046;50.088;14.336;2023-07-13T02:13:22;8.50;;;6.00;;
77854;SDS011;67046;50.088;14.336;2023-07-13T02:13:53;6.60;;;5.90;;
77854;SDS011;67046;50.088;14.336;2023-07-13T02:14:24;7.20;;;6.20;;
77854;SDS011;67046;50.088;14.336;2023-07-13T02:14:56;9.80;;;6.30;;
77854;SDS011;67046;50.088;14.336;2023-07-13T02:15:27;8.20;;;6.00;;
77854;SDS011;67046;50.088;14.336;2023-07-13T02:15:58;10.40;;;6.90;;
77854;SDS011;67046;50.088;14.336;2023-07-13T02:16:30;7.00;;;6.10;;
77854;SDS011;67046;50.088;14.336;2023-07-13T02:17:01;8.90;;;6.40;;
77854;SDS011;67046;50.088;14.336;2023-07-13T02:17:34;8.40;;;6.00;;
77854;SDS011;67046;50.088;14.336;2023-07-13T02:18:06;7.80;;;6.50;;
77854;SDS011;67046;50.088;14.336;2023-07-13T02:18:38;6.40;;;5.80;;
77854;SDS011;67046;50.088;14.336;2023-07-13T02:19:09;8.80;;;6.40;;
77854;SDS011;67046;50.088;14.336;2023-07-13T02:19:40;9.00;;;6.60;;
77854;SDS011;67046;50.088;14.336;2023-07-13T02:20:11;9.40;;;6.40;;
77854;SDS011;67046;50.088;14.336;2023-07-13T02:20:43;7.70;;;6.60;;
77854;SDS011;67046;50.088;14.336;2023-07-13T02:21:15;9.00;;;6.40;;
77854;SDS011;67046;50.088;14.336;2023-07-13T02:21:46;6.90;;;5.60;;
77854;SDS011;67046;50.088;14.336;2023-07-13T02:22:17;8.20;;;6.50;;
77854;SDS011;67046;50.088;14.336;2023-07-13T02:22:49;7.20;;;6.10;;
77854;SDS011;67046;50.088;14.336;2023-07-13T02:23:20;8.00;;;5.80;;
77854;SDS011;67046;50.088;14.336;2023-07-13T02:23:51;11.50;;;6.60;;
77854;SDS011;67046;50.088;14.336;2023-07-13T02:24:23;7.80;;;5.90;;
77854;SDS011;67046;50.088;14.336;2023-07-13T02:24:54;7.20;;;6.30;;
77854;SDS011;67046;50.088;14.336;2023-07-13T02:25:26;9.30;;;6.60;;
77854;SDS011;67046;50.088;14.336;2023-07-13T02:25:58;9.80;;;6.10;;
77854;SDS011;67046;50.088;14.336;2023-07-13T02:26:30;9.80;;;6.70;;
77854;SDS011;67046;50.088;14.336;2023-07-13T02:27:02;8.00;;;6.50;;
77854;SDS011;67046;50.088;14.336;2023-07-13T02:27:33;8.10;;;6.90;;
77854;SDS011;67046;50.088;14.336;2023-07-13T02:28:04;10.90;;;7.30;;
77854;SDS011;67046;50.088;14.336;2023-07-13T02:28:35;7.80;;;6.90;;
77854;SDS011;67046;50.088;14.336;2023-07-13T02:29:07;10.00;;;6.80;;
77854;SDS011;67046;50.088;14.336;2023-07-13T02:29:38;8.20;;;6.70;;
77854;SDS011;67046;50.088;14.336;2023-07-13T02:30:10;9.80;;;6.60;;
77854;SDS011;67046;50.088;14.336;2023-07-13T02:30:42;8.20;;;6.70;;
77854;SDS011;67046;50.088;14.336;2023-07-13T02:31:14;8.60;;;7.40;;
77854;SDS011;67046;50.088;14.336;2023-07-13T02:31:46;8.70;;;6.30;;
77854;SDS011;67046;50.088;14.336;2023-07-13T02:32:17;9.00;;;6.20;;
77854;SDS011;67046;50.088;14.336;2023-07-13T02:32:49;8.60;;;6.80;;
77854;SDS011;67046;50.088;14.336;2023-07-13T02:33:20;8.60;;;5.70;;
77854;SDS011;67046;50.088;14.336;2023-07-13T02:33:51;7.80;;;5.80;;
77854;SDS011;67046;50.088;14.336;2023-07-13T02:34:23;11.70;;;7.00;;
77854;SDS011;67046;50.088;14.336;2023-07-13T02:34:54;8.70;;;6.00;;
77854;SDS011;67046;50.088;14.336;2023-07-13T02:35:25;7.80;;;6.40;;
77854;SDS011;67046;50.088;14.336;2023-07-13T02:35:57;9.00;;;6.80;;
77854;SDS011;67046;50.088;14.336;2023-07-13T02:36:28;7.80;;;6.80;;
77854;SDS011;67046;50.088;14.336;2023-07-13T02:37:00;9.60;;;6.50;;
77854;SDS011;67046;50.088;14.336;2023-07-13T02:37:31;8.90;;;6.30;;
77854;SDS011;67046;50.088;14.336;2023-07-13T02:38:02;7.10;;;6.00;;
77854;SDS011;67046;50.088;14.336;2023-07-13T02:38:34;7.70;;;6.60;;
77854;SDS011;67046;50.088;14.336;2023-07-13T02:39:06;8.30;;;6.40;;
77854;SDS011;67046;50.088;14.336;2023-07-13T02:39:38;7.00;;;6.30;;
77854;SDS011;67046;50.088;14.336;2023-07-13T02:40:09;6.60;;;6.00;;
77854;SDS011;67046;50.088;14.336;2023-07-13T02:40:41;7.50;;;6.00;;
77854;SDS011;67046;50.088;14.336;2023-07-13T02:41:12;7.00;;;6.20;;
77854;SDS011;67046;50.088;14.336;2023-07-13T02:41:43;8.70;;;7.50;;
77854;SDS011;67046;50.088;14.336;2023-07-13T02:42:14;8.70;;;6.50;;
77854;SDS011;67046;50.088;14.336;2023-07-13T02:42:46;8.30;;;6.10;;
77854;SDS011;67046;50.088;14.336;2023-07-13T02:43:17;7.30;;;6.60;;
77854;SDS011;67046;50.088;14.336;2023-07-13T02:43:48;10.20;;;7.30;;
77854;SDS011;67046;50.088;14.336;2023-07-13T02:44:20;8.20;;;6.20;;
77854;SDS011;67046;50.088;14.336;2023-07-13T02:44:51;8.40;;;6.60;;
77854;SDS011;67046;50.088;14.336;2023-07-13T02:45:22;6.50;;;5.90;;
77854;SDS011;67046;50.088;14.336;2023-07-13T02:45:53;8.00;;;6.60;;
77854;SDS011;67046;50.088;14.336;2023-07-13T02:46:25;7.70;;;6.90;;
77854;SDS011;67046;50.088;14.336;2023-07-13T02:46:56;6.80;;;6.00;;
77854;SDS011;67046;50.088;14.336;2023-07-13T02:47:27;7.70;;;6.10;;
77854;SDS011;67046;50.088;14.336;2023-07-13T02:47:59;7.80;;;6.50;;
77854;SDS011;67046;50.088;14.336;2023-07-13T02:48:30;7.70;;;6.60;;
77854;SDS011;67046;50.088;14.336;2023-07-13T02:49:01;8.00;;;6.80;;
77854;SDS011;67046;50.088;14.336;2023-07-13T02:49:33;8.30;;;6.20;;
77854;SDS011;67046;50.088;14.336;2023-07-13T02:50:05;7.60;;;6.80;;
77854;SDS011;67046;50.088;14.336;2023-07-13T02:50:37;8.70;;;6.70;;
77854;SDS011;67046;50.088;14.336;2023-07-13T02:51:08;9.90;;;6.60;;
77854;SDS011;67046;50.088;14.336;2023-07-13T02:51:39;9.20;;;6.00;;
77854;SDS011;67046;50.088;14.336;2023-07-13T02:52:11;10.10;;;6.30;;
77854;SDS011;67046;50.088;14.336;2023-07-13T02:52:42;6.80;;;6.00;;
77854;SDS011;67046;50.088;14.336;2023-07-13T02:53:13;8.00;;;6.40;;
77854;SDS011;67046;50.088;14.336;2023-07-13T02:53:44;7.80;;;6.30;;
77854;SDS011;67046;50.088;14.336;2023-07-13T02:54:16;8.10;;;6.30;;
77854;SDS011;67046;50.088;14.336;2023-07-13T02:54:47;7.10;;;5.80;;
77854;SDS011;67046;50.088;14.336;2023-07-13T02:55:18;9.70;;;6.40;;
77854;SDS011;67046;50.088;14.336;2023-07-13T02:55:49;8.10;;;6.60;;
77854;SDS011;67046;50.088;14.336;2023-07-13T02:56:26;9.00;;;6.50;;
77854;SDS011;67046;50.088;14.336;2023-07-13T02:56:59;8.00;;;7.10;;
77854;SDS011;67046;50.088;14.336;2023-07-13T02:57:30;8.90;;;6.00;;
77854;SDS011;67046;50.088;14.336;2023-07-13T02:58:03;8.60;;;6.10;;
77854;SDS011;67046;50.088;14.336;2023-07-13T02:58:34;9.50;;;6.90;;
77854;SDS011;67046;50.088;14.336;2023-07-13T02:59:07;9.30;;;6.40;;
77854;SDS011;67046;50.088;14.336;2023-07-13T02:59:38;8.50;;;7.00;;
77854;SDS011;67046;50.088;14.336;2023-07-13T03:00:10;10.60;;;6.30;;
77854;SDS011;67046;50.088;14.336;2023-07-13T03:00:41;7.90;;;6.30;;
77854;SDS011;67046;50.088;14.336;2023-07-13T03:01:13;10.20;;;6.50;;
77854;SDS011;67046;50.088;14.336;2023-07-13T03:01:49;8.20;;;6.30;;
77854;SDS011;67046;50.088;14.336;2023-07-13T03:02:20;7.00;;;6.20;;
77854;SDS011;67046;50.088;14.336;2023-07-13T03:02:52;7.90;;;6.80;;
77854;SDS011;67046;50.088;14.336;2023-07-13T03:03:23;9.90;;;6.30;;
77854;SDS011;67046;50.088;14.336;2023-07-13T03:03:55;7.40;;;6.40;;
77854;SDS011;67046;50.088;14.336;2023-07-13T03:04:26;9.30;;;6.80;;
77854;SDS011;67046;50.088;14.336;2023-07-13T03:04:58;10.30;;;7.10;;
77854;SDS011;67046;50.088;14.336;2023-07-13T03:05:29;7.60;;;6.30;;
77854;SDS011;67046;50.088;14.336;2023-07-13T03:06:01;8.00;;;6.90;;
77854;SDS011;67046;50.088;14.336;2023-07-13T03:06:35;7.80;;;6.80;;
77854;SDS011;67046;50.088;14.336;2023-07-13T03:07:07;7.70;;;6.30;;
77854;SDS011;67046;50.088;14.336;2023-07-13T03:07:38;7.10;;;6.30;;
77854;SDS011;67046;50.088;14.336;2023-07-13T03:08:10;7.40;;;6.60;;
77854;SDS011;67046;50.088;14.336;2023-07-13T03:08:43;8.90;;;7.70;;
77854;SDS011;67046;50.088;14.336;2023-07-13T03:09:14;8.70;;;6.50;;
77854;SDS011;67046;50.088;14.336;2023-07-13T03:09:46;8.10;;;6.40;;
77854;SDS011;67046;50.088;14.336;2023-07-13T03:10:17;8.60;;;6.20;;
77854;SDS011;67046;50.088;14.336;2023-07-13T03:10:48;8.60;;;7.10;;
77854;SDS011;67046;50.088;14.336;2023-07-13T03:11:19;8.60;;;6.10;;
77854;SDS011;67046;50.088;14.336;2023-07-13T03:11:55;7.50;;;6.30;;
77854;SDS011;67046;50.088;14.336;2023-07-13T03:12:26;8.00;;;6.10;;
77854;SDS011;67046;50.088;14.336;2023-07-13T03:12:58;12.70;;;7.40;;
77854;SDS011;67046;50.088;14.336;2023-07-13T03:13:29;8.70;;;6.50;;
77854;SDS011;67046;50.088;14.336;2023-07-13T03:14:00;8.60;;;7.70;;
77854;SDS011;67046;50.088;14.336;2023-07-13T03:14:31;8.80;;;7.30;;